Terminal Aerodrome Forecast
Issued by NWS Omaha/Valley, NE

Home | Current Version | Previous Version | Text Only | Print | Product List | Glossary Off
Versions: 1 2 3 4 5 6 7 8 9 10 11 12 13 14 15 16 17 18 19 20 21 22 23 24 25 26 27 28 29 30 31 32

000
FTUS43 KOAX 011726
TAFOFK
TAF
KOFK 011726Z 0118/0218 07007KT P6SM SCT050 SCT250
     FM020200 VRB03KT P6SM BKN250
      TEMPO 0209/0212 3SM BR
     FM021200 VRB03KT P6SM BKN250=

USA.gov is the U.S. government's official web portal to all federal, state and local government web resources and services.